^^
Your Local Weather - Clay, NY Station Historical Data
Daily Summary for February 8, 2018 Units:  Metric    English   Both
« Previous Day
Next Day »
Daily Weekly Monthly Yearly Custom
  High: Low: Average:
Temperature: -4.9 °C -9.2 °C -6.9 °C
Dew Point: -7.2 °C -12.4 °C -9.3 °C
Humidity: 91% 74% 84%
Wind Speed: 8km/h 0km/h 2.4km/h
Wind Gust: 16.1km/h - -
Wind- - WSW
Pressure: 1029.7 hPa 1023.2 hPa -
Precipitation: 0.25 mm    
Historical Graphs
 
 
Tabular Data for February 8, 2018
Time Temperature Dew Point Pressure Wind Wind Speed Wind Gust Humidity Rainfall Rate (Hourly) solar
00:02 -6.3 °C -7.5 °C 1023.2 hPa Calm     91% 0 mm 0 W/m2
00:08 -6.2 °C -7.4 °C 1023.6 hPa Calm     91% 0 mm 0 W/m2
00:14 -6.2 °C -7.4 °C 1023.6 hPa Calm   1.6 km/h 91% 0 mm 0 W/m2
00:20 -6.2 °C -7.4 °C 1023.6 hPa Calm     91% 0 mm 0 W/m2
00:26 -6.2 °C -7.4 °C 1023.6 hPa Calm     91% 0 mm 0 W/m2
00:32 -6.2 °C -7.4 °C 1023.6 hPa Calm     91% 0 mm 0 W/m2
00:38 -6.1 °C -7.3 °C 1023.6 hPa Calm   1.6 km/h 91% 0 mm 0 W/m2
00:44 -6.1 °C -7.3 °C 1023.6 hPa Calm     91% 0 mm 0 W/m2
00:50 -6.1 °C -7.3 °C 1023.6 hPa Calm     91% 0 mm 0 W/m2
00:56 -6.1 °C -7.3 °C 1023.6 hPa Calm     91% 0 mm 0 W/m2
01:02 -6.1 °C -7.3 °C 1023.6 hPa Calm   3.2 km/h 91% 0 mm 0 W/m2
01:08 -6.2 °C -7.4 °C 1023.6 hPa NE 1.6 km/h 3.2 km/h 91% 0 mm 0 W/m2
01:14 -6.4 °C -7.7 °C 1023.6 hPa NNE 1.6 km/h 3.2 km/h 91% 0 mm 0 W/m2
01:20 -6.7 °C -7.9 °C 1023.9 hPa NNW 1.6 km/h 1.6 km/h 91% 0 mm 0 W/m2
01:26 -6.8 °C -8 °C 1023.9 hPa Calm   1.6 km/h 91% 0 mm 0 W/m2
01:32 -6.9 °C -8.3 °C 1023.6 hPa NNE 1.6 km/h 1.6 km/h 90% 0 mm 0 W/m2
01:38 -7.1 °C -8.3 °C 1023.6 hPa NNE 1.6 km/h 4.8 km/h 91% 0 mm 0 W/m2
01:44 -7.3 °C -8.6 °C 1023.6 hPa NNE 1.6 km/h 1.6 km/h 90% 0 mm 0 W/m2
01:50 -7.4 °C -8.7 °C 1023.6 hPa Calm   3.2 km/h 90% 0 mm 0 W/m2
01:56 -7.5 °C -8.8 °C 1023.9 hPa Calm   3.2 km/h 90% 0 mm 0 W/m2
02:02 -7.7 °C -9 °C 1023.9 hPa Calm     90% 0 mm 0 W/m2
02:08 -7.8 °C -9.2 °C 1023.9 hPa Calm     90% 0 mm 0 W/m2
02:14 -7.9 °C -9.2 °C 1023.9 hPa Calm     90% 0 mm 0 W/m2
02:20 -8 °C -9.3 °C 1023.9 hPa Calm     90% 0 mm 0 W/m2
02:26 -8.1 °C -9.4 °C 1023.9 hPa Calm     90% 0 mm 0 W/m2
02:32 -8.1 °C -9.4 °C 1024.3 hPa Calm     90% 0 mm 0 W/m2
02:38 -8.1 °C -9.4 °C 1024.3 hPa Calm     90% 0 mm 0 W/m2
02:44 -8.1 °C -9.4 °C 1024.3 hPa Calm     90% 0 mm 0 W/m2
02:50 -8.1 °C -9.4 °C 1024.3 hPa Calm     90% 0 mm 0 W/m2
02:56 -8 °C -9.3 °C 1024.3 hPa Calm     90% 0 mm 0 W/m2
03:02 -8 °C -9.3 °C 1024.3 hPa Calm     90% 0 mm 0 W/m2
03:08 -8 °C -9.3 °C 1024.3 hPa Calm     90% 0 mm 0 W/m2
03:14 -8 °C -9.3 °C 1024.3 hPa Calm     90% 0 mm 0 W/m2
03:20 -8 °C -9.3 °C 1024.3 hPa Calm     90% 0 mm 0 W/m2
03:26 -8.1 °C -9.4 °C 1024.6 hPa Calm     90% 0 mm 0 W/m2
03:32 -8.1 °C -9.4 °C 1024.6 hPa Calm     90% 0 mm 0 W/m2
03:38 -8.1 °C -9.4 °C 1024.3 hPa Calm     90% 0 mm 0 W/m2
03:44 -8.1 °C -9.4 °C 1024.3 hPa Calm     90% 0 mm 0 W/m2
03:50 -8.2 °C -9.5 °C 1024.3 hPa Calm     90% 0 mm 0 W/m2
03:56 -8.2 °C -9.5 °C 1024.6 hPa Calm     90% 0 mm 0 W/m2
04:02 -8.2 °C -9.6 °C 1024.6 hPa Calm     90% 0 mm 0 W/m2
04:08 -8.2 °C -9.5 °C 1024.6 hPa Calm     90% 0 mm 0 W/m2
04:16 -8.2 °C -9.6 °C 1024.6 hPa Calm     90% 0 mm 0 W/m2
04:22 -8.2 °C -9.6 °C 1024.6 hPa Calm     90% 0 mm 0 W/m2
04:28 -8.2 °C -9.6 °C 1024.9 hPa Calm     90% 0 mm 0 W/m2
04:34 -8.2 °C -9.6 °C 1024.9 hPa Calm     90% 0 mm 0 W/m2
04:40 -8.3 °C -9.6 °C 1024.9 hPa Calm     90% 0 mm 0 W/m2
04:46 -8.3 °C -9.7 °C 1024.9 hPa Calm     90% 0 mm 0 W/m2
04:52 -8.3 °C -9.7 °C 1024.9 hPa Calm     90% 0 mm 0 W/m2
04:58 -8.3 °C -9.7 °C 1025.3 hPa Calm     90% 0 mm 0 W/m2
05:04 -8.4 °C -9.7 °C 1025.3 hPa Calm     90% 0 mm 0 W/m2
05:10 -8.4 °C -9.7 °C 1025.3 hPa Calm     90% 0 mm 0 W/m2
05:16 -8.4 °C -9.7 °C 1025.3 hPa Calm     90% 0 mm 0 W/m2
05:22 -8.4 °C -9.8 °C 1025.6 hPa Calm     90% 0 mm 0 W/m2
05:28 -8.4 °C -9.8 °C 1025.6 hPa Calm     90% 0 mm 0 W/m2
05:34 -8.4 °C -9.8 °C 1025.6 hPa Calm     90% 0 mm 0 W/m2
05:40 -8.5 °C -9.8 °C 1025.6 hPa Calm     90% 0 mm 0 W/m2
05:46 -8.6 °C -9.9 °C 1025.6 hPa Calm     90% 0 mm 0 W/m2
05:52 -8.6 °C -9.9 °C 1025.6 hPa Calm     90% 0 mm 0 W/m2
05:58 -8.6 °C -9.9 °C 1026 hPa Calm     90% 0 mm 0 W/m2
06:04 -8.6 °C -9.9 °C 1026 hPa Calm     90% 0 mm 0 W/m2
06:10 -8.4 °C -9.8 °C 1026 hPa Calm     90% 0 mm 0 W/m2
06:16 -8.4 °C -9.7 °C 1026 hPa Calm     90% 0 mm 0 W/m2
06:22 -8.4 °C -9.7 °C 1026 hPa Calm     90% 0 mm 0 W/m2
06:28 -8.3 °C -9.7 °C 1026 hPa Calm     90% 0 mm 0 W/m2
06:34 -8.2 °C -9.6 °C 1026 hPa Calm   1.6 km/h 90% 0 mm 0 W/m2
06:40 -8.1 °C -9.4 °C 1026.3 hPa Calm     90% 0 mm 0 W/m2
06:46 -8 °C -9.3 °C 1026.3 hPa Calm     90% 0 mm 0 W/m2
06:52 -7.9 °C -9.3 °C 1026.3 hPa Calm   1.6 km/h 90% 0 mm 0 W/m2
06:58 -7.9 °C -9.2 °C 1026.3 hPa Calm   1.6 km/h 90% 0 mm 0 W/m2
07:04 -7.8 °C -9.2 °C 1026.6 hPa Calm     90% 0 mm 0 W/m2
07:10 -7.8 °C -9.2 °C 1026.6 hPa Calm     90% 0 mm 0 W/m2
07:16 -7.8 °C -9.2 °C 1026.6 hPa Calm     90% 0 mm 0 W/m2
07:22 -7.8 °C -9.1 °C 1026.6 hPa Calm     90% 0 mm 0 W/m2
07:28 -7.8 °C -9.2 °C 1026.6 hPa Calm     90% 0 mm 5 W/m2
07:34 -7.8 °C -9.2 °C 1026.6 hPa Calm     90% 0 mm 7 W/m2
07:40 -7.8 °C -9.2 °C 1027 hPa Calm     90% 0 mm 9 W/m2
07:46 -7.8 °C -9.1 °C 1027 hPa Calm     90% 0 mm 12 W/m2
07:52 -7.7 °C -9.1 °C 1027 hPa Calm     90% 0 mm 14 W/m2
07:58 -7.7 °C -9 °C 1027 hPa Calm     90% 0 mm 12 W/m2
08:04 -7.6 °C -8.9 °C 1027 hPa Calm     90% 0 mm 16 W/m2
08:10 -7.6 °C -8.9 °C 1027.3 hPa Calm     90% 0 mm 18 W/m2
08:16 -7.5 °C -8.8 °C 1027.3 hPa Calm     90% 0 mm 26 W/m2
08:22 -7.4 °C -8.8 °C 1027.3 hPa Calm   1.6 km/h 90% 0 mm 32 W/m2
08:28 -7.3 °C -8.7 °C 1027.7 hPa Calm   1.6 km/h 90% 0 mm 42 W/m2
08:34 -7.3 °C -8.6 °C 1027.7 hPa Calm   1.6 km/h 90% 0 mm 49 W/m2
08:40 -7.2 °C -8.5 °C 1027.7 hPa Calm   3.2 km/h 90% 0 mm 46 W/m2
08:46 -7.2 °C -8.5 °C 1027.7 hPa Calm   3.2 km/h 90% 0 mm 53 W/m2
08:52 -7.1 °C -8.4 °C 1027.7 hPa Calm   1.6 km/h 90% 0 mm 63 W/m2
08:58 -7 °C -8.4 °C 1027.7 hPa Calm   3.2 km/h 90% 0 mm 63 W/m2
09:04 -6.9 °C -8.3 °C 1027.7 hPa WNW 1.6 km/h 4.8 km/h 90% 0 mm 62 W/m2
09:10 -6.9 °C -8.3 °C 1027.7 hPa WNW 1.6 km/h 1.6 km/h 90% 0 mm 62 W/m2
09:16 -6.8 °C -8.2 °C 1027.7 hPa Calm   1.6 km/h 90% 0 mm 63 W/m2
09:22 -6.7 °C -8.1 °C 1027.7 hPa West 1.6 km/h 1.6 km/h 90% 0 mm 81 W/m2
09:28 -6.6 °C -7.9 °C 1027.7 hPa West 1.6 km/h 1.6 km/h 90% 0 mm 47 W/m2
09:34 -6.6 °C -8.1 °C 1027.7 hPa WNW 1.6 km/h 3.2 km/h 89% 0 mm 39 W/m2
09:40 -6.7 °C -8.2 °C 1027.7 hPa WNW 1.6 km/h 1.6 km/h 89% 0 mm 76 W/m2
09:46 -6.7 °C -8.2 °C 1028 hPa Calm   1.6 km/h 89% 0 mm 77 W/m2
09:52 -6.5 °C -8 °C 1028 hPa West 1.6 km/h 1.6 km/h 89% 0 mm 83 W/m2
09:58 -6.3 °C -7.8 °C 1028 hPa West 1.6 km/h 1.6 km/h 89% 0 mm 86 W/m2
10:04 -6.3 °C -7.9 °C 1027.7 hPa WSW 1.6 km/h 4.8 km/h 88% 0 mm 88 W/m2
10:10 -6.3 °C -8 °C 1028 hPa WSW 3.2 km/h 3.2 km/h 88% 0 mm 77 W/m2
10:16 -6.3 °C -8 °C 1027.7 hPa West 3.2 km/h 4.8 km/h 88% 0 mm 76 W/m2
10:22 -6.3 °C -8.2 °C 1028 hPa WSW 3.2 km/h 3.2 km/h 87% 0 mm 93 W/m2
10:28 -6.2 °C -8.1 °C 1028 hPa WSW 3.2 km/h 6.4 km/h 87% 0 mm 93 W/m2
10:34 -6.1 °C -7.9 °C 1028 hPa WSW 3.2 km/h 4.8 km/h 87% 0 mm 98 W/m2
10:40 -5.9 °C -7.8 °C 1028 hPa WNW 1.6 km/h 3.2 km/h 87% 0 mm 111 W/m2
10:46 -5.8 °C -7.4 °C 1028 hPa SW 3.2 km/h 3.2 km/h 88% 0 mm 116 W/m2
10:52 -5.7 °C -7.6 °C 1028 hPa WSW 3.2 km/h 6.4 km/h 87% 0 mm 121 W/m2
10:58 -5.8 °C -7.7 °C 1028 hPa WSW 4.8 km/h 6.4 km/h 87% 0 mm 130 W/m2
11:04 -5.8 °C -7.6 °C 1028 hPa West 3.2 km/h 4.8 km/h 87% 0 mm 132 W/m2
11:10 -5.7 °C -7.5 °C 1028 hPa SW 3.2 km/h 3.2 km/h 87% 0 mm 79 W/m2
11:16 -5.9 °C -7.8 °C 1028 hPa WSW 4.8 km/h 6.4 km/h 86% 0 mm 70 W/m2
11:22 -6.1 °C -8.1 °C 1028 hPa WSW 3.2 km/h 3.2 km/h 86% 0 mm 114 W/m2
11:28 -6.1 °C -7.9 °C 1028 hPa SW 1.6 km/h 3.2 km/h 87% 0 mm 121 W/m2
11:34 -6.1 °C -7.9 °C 1028 hPa West 3.2 km/h 6.4 km/h 87% 0 mm 137 W/m2
11:40 -6.1 °C -7.9 °C 1027.7 hPa West 3.2 km/h 3.2 km/h 87% 0 mm 77 W/m2
11:46 -6.1 °C -7.9 °C 1027.7 hPa West 1.6 km/h 3.2 km/h 87% 0 mm 176 W/m2
11:52 -6.1 °C -7.9 °C 1027.7 hPa West 1.6 km/h 3.2 km/h 87% 0 mm 109 W/m2
11:58 -6 °C -7.8 °C 1027.7 hPa West 1.6 km/h 3.2 km/h 87% 0 mm 353 W/m2
12:06 -5.8 °C -7.7 °C 1027.3 hPa West 1.6 km/h 1.6 km/h 87% 0 mm 107 W/m2
12:12 -5.8 °C -7.7 °C 1027.3 hPa West 1.6 km/h 1.6 km/h 87% 0 mm 137 W/m2
12:18 -5.7 °C -7.5 °C 1027.3 hPa West 1.6 km/h 1.6 km/h 87% 0 mm 475 W/m2
12:24 -5.4 °C -7.2 °C 1027 hPa WSW 1.6 km/h 6.4 km/h 87% 0 mm 179 W/m2
12:30 -5.4 °C -7.6 °C 1027 hPa WSW 3.2 km/h 3.2 km/h 85% 0 mm 188 W/m2
12:36 -5.4 °C -7.5 °C 1027 hPa WSW 3.2 km/h 3.2 km/h 85% 0 mm 547 W/m2
12:42 -5.2 °C -7.3 °C 1026.6 hPa SSE 3.2 km/h 6.4 km/h 85% 0 mm 155 W/m2
12:48 -5.5 °C -7.8 °C 1026.6 hPa WSW 4.8 km/h 8 km/h 84% 0 mm 151 W/m2
12:54 -5.6 °C -8 °C 1026.6 hPa SW 4.8 km/h 8 km/h 83% 0 mm 183 W/m2
13:00 -5.7 °C -8.2 °C 1026.6 hPa West 4.8 km/h 8 km/h 83% 0 mm 246 W/m2
13:06 -5.7 °C -8.3 °C 1026.6 hPa WSW 4.8 km/h 8 km/h 82% 0 mm 671 W/m2
13:12 -5.4 °C -7.9 °C 1026.6 hPa WSW 4.8 km/h 4.8 km/h 83% 0 mm 246 W/m2
13:18 -5.2 °C -7.8 °C 1026.3 hPa WSW 4.8 km/h 6.4 km/h 82% 0 mm 278 W/m2
13:24 -5.2 °C -7.8 °C 1026 hPa South 4.8 km/h 8 km/h 82% 0 mm 202 W/m2
13:30 -5.3 °C -8.1 °C 1026 hPa SW 4.8 km/h 4.8 km/h 81% 0 mm 239 W/m2
13:36 -5.1 °C -7.8 °C 1026 hPa WSW 4.8 km/h 6.4 km/h 81% 0 mm 754 W/m2
13:42 -4.9 °C -7.7 °C 1026 hPa WSW 4.8 km/h 4.8 km/h 81% 0 mm 258 W/m2
13:48 -5.2 °C -8.1 °C 1026 hPa SSW 6.4 km/h 6.4 km/h 80% 0 mm 218 W/m2
13:54 -5.3 °C -8.2 °C 1025.6 hPa WSW 4.8 km/h 8 km/h 80% 0 mm 185 W/m2
14:00 -5.3 °C -8.2 °C 1025.6 hPa NW 3.2 km/h 3.2 km/h 80% 0 mm 214 W/m2
14:06 -5.3 °C -8.3 °C 1025.3 hPa WSW 3.2 km/h 4.8 km/h 79% 0 mm 260 W/m2
14:12 -5.3 °C -8.3 °C 1025.3 hPa West 4.8 km/h 9.7 km/h 79% 0 mm 243 W/m2
14:18 -5.3 °C -8.7 °C 1025.3 hPa West 4.8 km/h 9.7 km/h 77% 0 mm 186 W/m2
14:24 -5.3 °C -8.6 °C 1025.3 hPa WNW 3.2 km/h 4.8 km/h 78% 0 mm 202 W/m2
14:30 -5.3 °C -8.6 °C 1025.3 hPa West 3.2 km/h 3.2 km/h 78% 0 mm 227 W/m2
14:36 -5.3 °C -8.5 °C 1025.3 hPa WSW 1.6 km/h 4.8 km/h 78% 0 mm 202 W/m2
14:42 -5.2 °C -8.4 °C 1024.9 hPa West 3.2 km/h 4.8 km/h 78% 0 mm 264 W/m2
14:48 -5.1 °C -8.3 °C 1025.3 hPa WSW 3.2 km/h 9.7 km/h 78% 0 mm 199 W/m2
14:54 -5.2 °C -8.6 °C 1025.3 hPa WSW 3.2 km/h 4.8 km/h 77% 0 mm 179 W/m2
15:00 -5.2 °C -8.6 °C 1025.3 hPa WSW 3.2 km/h 3.2 km/h 77% 0 mm 171 W/m2
15:06 -5.2 °C -8.6 °C 1025.3 hPa WSW 4.8 km/h 6.4 km/h 77% 0 mm 179 W/m2
15:12 -5.3 °C -8.5 °C 1025.3 hPa SW 4.8 km/h 4.8 km/h 78% 0 mm 142 W/m2
15:18 -5.3 °C -8.5 °C 1025.3 hPa SSW 4.8 km/h 6.4 km/h 78% 0 mm 139 W/m2
15:24 -5.3 °C -8.3 °C 1025.3 hPa South 3.2 km/h 4.8 km/h 79% 0 mm 148 W/m2
15:30 -5.3 °C -8.3 °C 1025.3 hPa South 3.2 km/h 3.2 km/h 79% 0 mm 200 W/m2
15:36 -5.1 °C -8.2 °C 1025.3 hPa SW 3.2 km/h 11.3 km/h 79% 0 mm 162 W/m2
15:44 -5.3 °C -8.7 °C 1025.3 hPa SW 6.4 km/h 6.4 km/h 77% 0 mm 142 W/m2
15:50 -5.2 °C -8.6 °C 1025.3 hPa WSW 4.8 km/h 4.8 km/h 77% 0 mm 188 W/m2
15:56 -5.1 °C -8.5 °C 1025.3 hPa West 3.2 km/h 4.8 km/h 77% 0 mm 190 W/m2
16:02 -5.1 °C -8.8 °C 1025.3 hPa SW 3.2 km/h 11.3 km/h 75% 0 mm 109 W/m2
16:08 -5.2 °C -8.9 °C 1025.6 hPa WSW 4.8 km/h 11.3 km/h 75% 0 mm 105 W/m2
16:14 -5.3 °C -9.1 °C 1025.6 hPa West 4.8 km/h 8 km/h 75% 0 mm 88 W/m2
16:20 -5.3 °C -9.1 °C 1025.6 hPa WSW 4.8 km/h 6.4 km/h 75% 0 mm 93 W/m2
16:26 -5.4 °C -9.3 °C 1025.6 hPa SW 3.2 km/h 6.4 km/h 74% 0 mm 63 W/m2
16:32 -5.4 °C -9.3 °C 1026 hPa SW 3.2 km/h 3.2 km/h 74% 0 mm 54 W/m2
16:38 -5.4 °C -9.3 °C 1025.6 hPa WSW 1.6 km/h 3.2 km/h 74% 0 mm 42 W/m2
16:44 -5.4 °C -9.3 °C 1025.6 hPa WSW 3.2 km/h 4.8 km/h 74% 0 mm 37 W/m2
16:50 -5.4 °C -9.2 °C 1025.6 hPa WSW 1.6 km/h 1.6 km/h 75% 0 mm 37 W/m2
16:56 -5.4 °C -9.3 °C 1025.6 hPa WSW 3.2 km/h 6.4 km/h 74% 0 mm 35 W/m2
17:02 -5.4 °C -9.3 °C 1025.6 hPa WSW 1.6 km/h 3.2 km/h 74% 0 mm 23 W/m2
17:08 -5.6 °C -9.4 °C 1025.6 hPa WSW 1.6 km/h 8 km/h 74% 0 mm 19 W/m2
17:14 -5.6 °C -9.5 °C 1025.6 hPa WSW 1.6 km/h 1.6 km/h 74% 0 mm 12 W/m2
17:20 -5.7 °C -9.6 °C 1026 hPa WSW 1.6 km/h 1.6 km/h 74% 0 mm 7 W/m2
17:26 -5.7 °C -9.6 °C 1026 hPa WSW 1.6 km/h 4.8 km/h 74% 0 mm 0 W/m2
17:32 -5.7 °C -9.4 °C 1026 hPa Calm   1.6 km/h 75% 0 mm 0 W/m2
17:38 -5.7 °C -9.6 °C 1026 hPa West 1.6 km/h 1.6 km/h 74% 0 mm 0 W/m2
17:44 -5.7 °C -9.4 °C 1026 hPa West 1.6 km/h 1.6 km/h 75% 0 mm 0 W/m2
17:50 -5.8 °C -9.5 °C 1026.3 hPa Calm   3.2 km/h 75% 0 mm 0 W/m2
17:56 -5.8 °C -9.7 °C 1026.3 hPa WSW 1.6 km/h 4.8 km/h 74% 0 mm 0 W/m2
18:02 -5.8 °C -9.5 °C 1026.6 hPa WSW 1.6 km/h 3.2 km/h 75% 0 mm 0 W/m2
18:08 -5.7 °C -9.6 °C 1026.6 hPa West 3.2 km/h 4.8 km/h 74% 0 mm 0 W/m2
18:14 -5.7 °C -9.6 °C 1026.6 hPa West 4.8 km/h 6.4 km/h 74% 0 mm 0 W/m2
18:20 -5.7 °C -9.4 °C 1026.6 hPa West 4.8 km/h 4.8 km/h 75% 0 mm 0 W/m2
18:26 -5.7 °C -9.4 °C 1027 hPa WSW 3.2 km/h 8 km/h 75% 0 mm 0 W/m2
18:32 -5.7 °C -9.3 °C 1027 hPa WNW 4.8 km/h 12.9 km/h 76% 0 mm 0 W/m2
18:38 -5.8 °C -9.1 °C 1027 hPa SW 8 km/h 12.9 km/h 78% 0 mm 0 W/m2
18:44 -5.9 °C -9 °C 1027 hPa West 6.4 km/h 11.3 km/h 79% 0 mm 0 W/m2
18:50 -6.1 °C -8.9 °C 1027.3 hPa West 4.8 km/h 6.4 km/h 80% 0 mm 0 W/m2
18:56 -6.1 °C -9.2 °C 1027.3 hPa West 6.4 km/h 11.3 km/h 79% 0 mm 0 W/m2
19:02 -6.2 °C -9.3 °C 1027.3 hPa WSW 6.4 km/h 6.4 km/h 79% 0 mm 0 W/m2
19:08 -6.4 °C -9.6 °C 1027.7 hPa West 6.4 km/h 6.4 km/h 78% 0 mm 0 W/m2
19:14 -6.6 °C -9.9 °C 1027.7 hPa West 6.4 km/h 6.4 km/h 77% 0 mm 0 W/m2
19:20 -6.7 °C -10.2 °C 1027.7 hPa WSW 6.4 km/h 6.4 km/h 76% 0 mm 0 W/m2
19:26 -6.7 °C -10.2 °C 1027.7 hPa WSW 4.8 km/h 6.4 km/h 76% 0 mm 0 W/m2
19:32 -6.8 °C -10.2 °C 1027.7 hPa WSW 3.2 km/h 4.8 km/h 77% 0 mm 0 W/m2
19:38 -6.9 °C -10.3 °C 1027.7 hPa SW 4.8 km/h 8 km/h 77% 0 mm 0 W/m2
19:44 -7.1 °C -10.4 °C 1027.7 hPa WSW 4.8 km/h 4.8 km/h 77% 0 mm 0 W/m2
19:50 -7.2 °C -10.7 °C 1027.7 hPa WNW 4.8 km/h 4.8 km/h 76% 0 mm 0 W/m2
19:56 -7.4 °C -11.1 °C 1027.7 hPa WSW 6.4 km/h 11.3 km/h 75% 0 mm 0 W/m2
20:02 -7.5 °C -11.2 °C 1027.7 hPa SW 6.4 km/h 6.4 km/h 75% 0 mm 0 W/m2
20:08 -7.6 °C -11.3 °C 1027.7 hPa WSW 6.4 km/h 11.3 km/h 75% 0 mm 0 W/m2
20:14 -7.7 °C -11.6 °C 1028 hPa WSW 4.8 km/h 9.7 km/h 74% 0 mm 0 W/m2
20:20 -7.8 °C -11.6 °C 1028 hPa SSW 4.8 km/h 4.8 km/h 74% 0 mm 0 W/m2
20:26 -7.8 °C -11.7 °C 1028 hPa West 6.4 km/h 11.3 km/h 74% 0 mm 0 W/m2
20:32 -7.9 °C -11.6 °C 1028 hPa WSW 6.4 km/h 16.1 km/h 75% 0 mm 0 W/m2
20:38 -7.9 °C -11.7 °C 1028 hPa WSW 4.8 km/h 16.1 km/h 74% 0 mm 0 W/m2
20:44 -7.9 °C -11.8 °C 1028 hPa West 3.2 km/h 6.4 km/h 74% 0 mm 0 W/m2
20:50 -8.1 °C -11.7 °C 1028 hPa West 4.8 km/h 4.8 km/h 75% 0 mm 0 W/m2
20:56 -8.1 °C -11.7 °C 1028.3 hPa SW 4.8 km/h 4.8 km/h 75% 0 mm 0 W/m2
21:02 -8.2 °C -11.8 °C 1028.3 hPa SSW 4.8 km/h 6.4 km/h 75% 0 mm 0 W/m2
21:08 -8.2 °C -11.8 °C 1028.3 hPa SSW 6.4 km/h 12.9 km/h 75% 0 mm 0 W/m2
21:14 -8.1 °C -11.8 °C 1028.3 hPa SW 6.4 km/h 11.3 km/h 75% 0 mm 0 W/m2
21:20 -8.2 °C -11.8 °C 1028.7 hPa SW 6.4 km/h 6.4 km/h 75% 0 mm 0 W/m2
21:26 -8.2 °C -11.9 °C 1028.7 hPa SSW 4.8 km/h 11.3 km/h 75% 0 mm 0 W/m2
21:32 -8.2 °C -11.9 °C 1028.7 hPa West 6.4 km/h 6.4 km/h 75% 0 mm 0 W/m2
21:38 -8.3 °C -11.9 °C 1028.7 hPa WSW 6.4 km/h 9.7 km/h 75% 0 mm 0 W/m2
21:44 -8.3 °C -11.8 °C 1028.7 hPa SW 8 km/h 12.9 km/h 76% 0 mm 0 W/m2
21:50 -8.2 °C -11.7 °C 1029 hPa WSW 8 km/h 8 km/h 76% 0 mm 0 W/m2
21:56 -8.3 °C -11.8 °C 1029.3 hPa West 8 km/h 11.3 km/h 76% 0 mm 0 W/m2
22:02 -8.3 °C -11.8 °C 1029.3 hPa West 6.4 km/h 8 km/h 76% 0 mm 0 W/m2
22:08 -8.3 °C -11.8 °C 1029.3 hPa WSW 6.4 km/h 8 km/h 76% 0 mm 0 W/m2
22:14 -8.3 °C -11.8 °C 1029.3 hPa SW 6.4 km/h 6.4 km/h 76% 0 mm 0 W/m2
22:20 -8.3 °C -11.8 °C 1029.3 hPa WSW 6.4 km/h 6.4 km/h 76% 0 mm 0 W/m2
22:26 -8.4 °C -11.9 °C 1029.3 hPa WSW 6.4 km/h 8 km/h 76% 0 mm 0 W/m2
22:32 -8.4 °C -11.9 °C 1029.3 hPa WSW 4.8 km/h 4.8 km/h 76% 0 mm 0 W/m2
22:38 -8.6 °C -12.1 °C 1029.3 hPa WSW 3.2 km/h 4.8 km/h 76% 0 mm 0 W/m2
22:44 -8.5 °C -11.8 °C 1029.3 hPa WSW 4.8 km/h 8 km/h 77% 0 mm 0 W/m2
22:50 -8.6 °C -11.9 °C 1029.7 hPa WSW 4.8 km/h 4.8 km/h 77% 0 mm 0 W/m2
22:56 -8.6 °C -11.9 °C 1029.7 hPa WSW 4.8 km/h 9.7 km/h 77% 0 mm 0 W/m2
23:02 -8.6 °C -11.9 °C 1029.7 hPa WSW 4.8 km/h 9.7 km/h 77% 0 mm 0 W/m2
23:08 -8.7 °C -12 °C 1029.7 hPa WSW 4.8 km/h 9.7 km/h 77% 0 mm 0 W/m2
23:14 -8.8 °C -12.1 °C 1029.7 hPa WSW 3.2 km/h 4.8 km/h 77% 0 mm 0 W/m2
23:20 -8.9 °C -12.2 °C 1029.7 hPa WSW 3.2 km/h 6.4 km/h 77% 0 mm 0 W/m2
23:26 -9 °C -12.3 °C 1029.7 hPa WSW 3.2 km/h 6.4 km/h 77% 0 mm 0 W/m2
23:32 -9.1 °C -12.3 °C 1029.7 hPa WSW 3.2 km/h 6.4 km/h 77% 0 mm 0 W/m2
23:38 -9.1 °C -12.4 °C 1029.7 hPa SW 4.8 km/h 6.4 km/h 77% 0 mm 0 W/m2
23:44 -9.1 °C -12.4 °C 1029.7 hPa WSW 3.2 km/h 4.8 km/h 77% 0 mm 0 W/m2
23:50 -9.1 °C -12.4 °C 1029.7 hPa WSW 3.2 km/h 6.4 km/h 77% 0 mm 0 W/m2
23:56 -9.2 °C -12.4 °C 1029.7 hPa WSW 3.2 km/h 6.4 km/h 77% 0 mm 0 W/m2
Country Meadow, Clay, NY, USA
Compliments of Weather Underground - 2 mb